sensor_id;sensor_type;location;lat;lon;timestamp;P1;durP1;ratioP1;P2;durP2;ratioP2
62110;SDS011;48102;47.526;19.072;2023-01-16T04:46:40;14.18;;;10.32;;
62110;SDS011;48102;47.526;19.072;2023-01-16T04:49:44;14.23;;;9.93;;
62110;SDS011;48102;47.526;19.072;2023-01-16T04:52:47;13.23;;;8.63;;
62110;SDS011;48102;47.526;19.072;2023-01-16T04:58:52;12.77;;;9.20;;
62110;SDS011;48102;47.526;19.072;2023-01-16T05:01:56;9.23;;;7.07;;
62110;SDS011;48102;47.526;19.072;2023-01-16T05:08:02;11.43;;;8.63;;
62110;SDS011;48102;47.526;19.072;2023-01-16T05:11:20;12.40;;;7.93;;
62110;SDS011;48102;47.526;19.072;2023-01-16T05:14:23;14.27;;;9.82;;
62110;SDS011;48102;47.526;19.072;2023-01-16T05:17:25;12.80;;;9.25;;
62110;SDS011;48102;47.526;19.072;2023-01-16T05:20:29;12.40;;;8.23;;
62110;SDS011;48102;47.526;19.072;2023-01-16T05:23:32;11.82;;;9.45;;
62110;SDS011;48102;47.526;19.072;2023-01-16T05:26:39;10.52;;;7.90;;
62110;SDS011;48102;47.526;19.072;2023-01-16T05:29:42;12.68;;;9.00;;
62110;SDS011;48102;47.526;19.072;2023-01-16T05:32:45;14.02;;;9.32;;
62110;SDS011;48102;47.526;19.072;2023-01-16T05:35:48;11.30;;;8.40;;
62110;SDS011;48102;47.526;19.072;2023-01-16T05:38:51;10.07;;;8.13;;
62110;SDS011;48102;47.526;19.072;2023-01-16T05:41:55;15.70;;;10.25;;
62110;SDS011;48102;47.526;19.072;2023-01-16T05:44:58;12.37;;;9.38;;
62110;SDS011;48102;47.526;19.072;2023-01-16T05:48:00;13.70;;;10.65;;
62110;SDS011;48102;47.526;19.072;2023-01-16T05:54:09;17.58;;;9.73;;
62110;SDS011;48102;47.526;19.072;2023-01-16T05:57:13;14.05;;;10.38;;
62110;SDS011;48102;47.526;19.072;2023-01-16T06:00:15;19.48;;;12.30;;
62110;SDS011;48102;47.526;19.072;2023-01-16T06:03:19;15.95;;;11.80;;
62110;SDS011;48102;47.526;19.072;2023-01-16T06:06:23;19.37;;;13.27;;
62110;SDS011;48102;47.526;19.072;2023-01-16T06:09:26;20.95;;;13.68;;
62110;SDS011;48102;47.526;19.072;2023-01-16T06:12:29;16.98;;;13.18;;
62110;SDS011;48102;47.526;19.072;2023-01-16T06:15:34;15.55;;;10.77;;
62110;SDS011;48102;47.526;19.072;2023-01-16T06:18:37;17.05;;;12.10;;
62110;SDS011;48102;47.526;19.072;2023-01-16T06:21:40;14.98;;;11.52;;
62110;SDS011;48102;47.526;19.072;2023-01-16T06:24:42;26.02;;;13.62;;
62110;SDS011;48102;47.526;19.072;2023-01-16T06:27:51;16.00;;;11.63;;
62110;SDS011;48102;47.526;19.072;2023-01-16T06:30:54;14.95;;;11.35;;
62110;SDS011;48102;47.526;19.072;2023-01-16T06:33:57;18.05;;;11.63;;
62110;SDS011;48102;47.526;19.072;2023-01-16T06:36:59;15.00;;;11.57;;
62110;SDS011;48102;47.526;19.072;2023-01-16T06:40:02;13.95;;;9.25;;
62110;SDS011;48102;47.526;19.072;2023-01-16T06:46:08;18.75;;;9.30;;
62110;SDS011;48102;47.526;19.072;2023-01-16T06:49:11;14.52;;;10.90;;
62110;SDS011;48102;47.526;19.072;2023-01-16T06:52:17;13.30;;;9.43;;
62110;SDS011;48102;47.526;19.072;2023-01-16T06:55:20;14.65;;;8.82;;
62110;SDS011;48102;47.526;19.072;2023-01-16T06:58:23;16.45;;;9.73;;
62110;SDS011;48102;47.526;19.072;2023-01-16T07:01:26;17.77;;;9.52;;
62110;SDS011;48102;47.526;19.072;2023-01-16T07:04:30;10.75;;;7.90;;
62110;SDS011;48102;47.526;19.072;2023-01-16T07:07:32;14.23;;;8.82;;
62110;SDS011;48102;47.526;19.072;2023-01-16T07:16:42;10.13;;;7.32;;
62110;SDS011;48102;47.526;19.072;2023-01-16T07:20:04;11.43;;;8.48;;
62110;SDS011;48102;47.526;19.072;2023-01-16T07:23:30;11.15;;;8.43;;
62110;SDS011;48102;47.526;19.072;2023-01-16T07:26:36;10.35;;;7.43;;
62110;SDS011;48102;47.526;19.072;2023-01-16T07:29:42;10.23;;;7.35;;
62110;SDS011;48102;47.526;19.072;2023-01-16T07:35:49;14.68;;;9.82;;
62110;SDS011;48102;47.526;19.072;2023-01-16T07:41:55;11.43;;;8.27;;
62110;SDS011;48102;47.526;19.072;2023-01-16T07:45:07;12.00;;;8.18;;
62110;SDS011;48102;47.526;19.072;2023-01-16T07:48:11;12.48;;;8.65;;
62110;SDS011;48102;47.526;19.072;2023-01-16T07:51:13;15.00;;;10.23;;
62110;SDS011;48102;47.526;19.072;2023-01-16T07:54:16;13.80;;;8.57;;
62110;SDS011;48102;47.526;19.072;2023-01-16T07:57:19;17.95;;;10.02;;
62110;SDS011;48102;47.526;19.072;2023-01-16T08:00:22;13.27;;;9.23;;
62110;SDS011;48102;47.526;19.072;2023-01-16T08:06:28;9.45;;;7.93;;
62110;SDS011;48102;47.526;19.072;2023-01-16T08:09:31;10.73;;;6.57;;
62110;SDS011;48102;47.526;19.072;2023-01-16T08:12:34;11.65;;;7.72;;
62110;SDS011;48102;47.526;19.072;2023-01-16T08:15:40;13.27;;;7.43;;
62110;SDS011;48102;47.526;19.072;2023-01-16T08:18:43;14.85;;;8.75;;
62110;SDS011;48102;47.526;19.072;2023-01-16T08:21:46;15.38;;;9.65;;
62110;SDS011;48102;47.526;19.072;2023-01-16T08:24:49;11.50;;;8.35;;
62110;SDS011;48102;47.526;19.072;2023-01-16T08:27:52;23.92;;;9.18;;
62110;SDS011;48102;47.526;19.072;2023-01-16T08:30:54;13.15;;;7.62;;
62110;SDS011;48102;47.526;19.072;2023-01-16T08:33:57;10.10;;;6.93;;
62110;SDS011;48102;47.526;19.072;2023-01-16T08:37:00;10.70;;;8.30;;
62110;SDS011;48102;47.526;19.072;2023-01-16T08:40:08;11.63;;;7.07;;
62110;SDS011;48102;47.526;19.072;2023-01-16T08:43:11;11.18;;;7.43;;
62110;SDS011;48102;47.526;19.072;2023-01-16T08:46:33;12.00;;;8.13;;
62110;SDS011;48102;47.526;19.072;2023-01-16T08:49:54;10.45;;;7.10;;
62110;SDS011;48102;47.526;19.072;2023-01-16T08:53:16;12.10;;;8.10;;
62110;SDS011;48102;47.526;19.072;2023-01-16T08:56:19;9.90;;;6.90;;
62110;SDS011;48102;47.526;19.072;2023-01-16T08:59:24;14.48;;;8.55;;
62110;SDS011;48102;47.526;19.072;2023-01-16T09:02:26;11.35;;;7.05;;
62110;SDS011;48102;47.526;19.072;2023-01-16T09:05:30;10.48;;;6.97;;
62110;SDS011;48102;47.526;19.072;2023-01-16T09:08:33;9.32;;;6.65;;
62110;SDS011;48102;47.526;19.072;2023-01-16T09:11:36;9.93;;;6.70;;
62110;SDS011;48102;47.526;19.072;2023-01-16T09:14:57;9.27;;;6.28;;
62110;SDS011;48102;47.526;19.072;2023-01-16T09:18:01;9.93;;;7.20;;
62110;SDS011;48102;47.526;19.072;2023-01-16T09:21:04;10.38;;;7.07;;
62110;SDS011;48102;47.526;19.072;2023-01-16T09:27:10;10.57;;;6.57;;
62110;SDS011;48102;47.526;19.072;2023-01-16T09:30:17;10.80;;;7.20;;
62110;SDS011;48102;47.526;19.072;2023-01-16T09:33:20;10.05;;;7.43;;
62110;SDS011;48102;47.526;19.072;2023-01-16T09:36:25;13.45;;;8.35;;
62110;SDS011;48102;47.526;19.072;2023-01-16T09:39:28;12.13;;;7.40;;
62110;SDS011;48102;47.526;19.072;2023-01-16T09:46:18;11.63;;;8.60;;
62110;SDS011;48102;47.526;19.072;2023-01-16T09:49:26;13.73;;;8.38;;
62110;SDS011;48102;47.526;19.072;2023-01-16T09:52:34;12.02;;;7.37;;
62110;SDS011;48102;47.526;19.072;2023-01-16T09:55:57;20.08;;;8.07;;
62110;SDS011;48102;47.526;19.072;2023-01-16T09:59:32;13.85;;;7.37;;
62110;SDS011;48102;47.526;19.072;2023-01-16T10:02:40;13.70;;;8.45;;
62110;SDS011;48102;47.526;19.072;2023-01-16T10:05:53;11.98;;;7.12;;
62110;SDS011;48102;47.526;19.072;2023-01-16T10:09:08;11.23;;;6.97;;
62110;SDS011;48102;47.526;19.072;2023-01-16T10:12:18;11.73;;;7.43;;
62110;SDS011;48102;47.526;19.072;2023-01-16T10:31:42;13.65;;;8.00;;
62110;SDS011;48102;47.526;19.072;2023-01-16T10:38:12;13.35;;;8.48;;
62110;SDS011;48102;47.526;19.072;2023-01-16T10:41:47;13.57;;;8.23;;
62110;SDS011;48102;47.526;19.072;2023-01-16T10:45:13;13.18;;;8.05;;
62110;SDS011;48102;47.526;19.072;2023-01-16T10:48:37;13.10;;;7.12;;
62110;SDS011;48102;47.526;19.072;2023-01-16T10:52:00;14.30;;;8.30;;
62110;SDS011;48102;47.526;19.072;2023-01-16T10:55:06;11.77;;;7.30;;
62110;SDS011;48102;47.526;19.072;2023-01-16T11:01:28;12.37;;;7.75;;
62110;SDS011;48102;47.526;19.072;2023-01-16T11:04:34;16.85;;;8.80;;
62110;SDS011;48102;47.526;19.072;2023-01-16T11:07:37;14.52;;;9.32;;
62110;SDS011;48102;47.526;19.072;2023-01-16T11:10:41;13.80;;;7.68;;
62110;SDS011;48102;47.526;19.072;2023-01-16T11:13:45;14.40;;;9.18;;
62110;SDS011;48102;47.526;19.072;2023-01-16T11:24:21;11.75;;;9.15;;
62110;SDS011;48102;47.526;19.072;2023-01-16T11:27:30;15.30;;;8.55;;
62110;SDS011;48102;47.526;19.072;2023-01-16T11:30:37;12.13;;;8.30;;
62110;SDS011;48102;47.526;19.072;2023-01-16T11:33:44;12.02;;;8.25;;
62110;SDS011;48102;47.526;19.072;2023-01-16T11:36:57;14.18;;;9.30;;
62110;SDS011;48102;47.526;19.072;2023-01-16T11:40:03;13.77;;;9.25;;
62110;SDS011;48102;47.526;19.072;2023-01-16T11:43:12;12.85;;;8.32;;
62110;SDS011;48102;47.526;19.072;2023-01-16T11:46:37;12.05;;;7.97;;
62110;SDS011;48102;47.526;19.072;2023-01-16T11:49:45;16.30;;;9.10;;
62110;SDS011;48102;47.526;19.072;2023-01-16T11:52:50;12.37;;;7.95;;
62110;SDS011;48102;47.526;19.072;2023-01-16T12:06:39;16.73;;;7.80;;
62110;SDS011;48102;47.526;19.072;2023-01-16T12:09:55;12.30;;;8.05;;
62110;SDS011;48102;47.526;19.072;2023-01-16T12:13:08;12.90;;;8.07;;
62110;SDS011;48102;47.526;19.072;2023-01-16T12:16:34;14.55;;;7.85;;
62110;SDS011;48102;47.526;19.072;2023-01-16T12:23:14;12.52;;;7.47;;
62110;SDS011;48102;47.526;19.072;2023-01-16T12:26:35;15.45;;;8.10;;
62110;SDS011;48102;47.526;19.072;2023-01-16T12:33:17;12.68;;;8.13;;
62110;SDS011;48102;47.526;19.072;2023-01-16T12:51:22;13.25;;;6.75;;
62110;SDS011;48102;47.526;19.072;2023-01-16T12:58:04;14.93;;;8.48;;
62110;SDS011;48102;47.526;19.072;2023-01-16T13:04:28;11.80;;;7.35;;
62110;SDS011;48102;47.526;19.072;2023-01-16T13:07:37;14.15;;;7.85;;
62110;SDS011;48102;47.526;19.072;2023-01-16T13:10:48;13.85;;;9.45;;
62110;SDS011;48102;47.526;19.072;2023-01-16T13:14:14;14.65;;;9.07;;
62110;SDS011;48102;47.526;19.072;2023-01-16T13:17:39;11.93;;;8.65;;
62110;SDS011;48102;47.526;19.072;2023-01-16T13:20:47;15.63;;;8.70;;
62110;SDS011;48102;47.526;19.072;2023-01-16T13:23:54;12.40;;;8.43;;
62110;SDS011;48102;47.526;19.072;2023-01-16T13:27:04;12.70;;;9.50;;
62110;SDS011;48102;47.526;19.072;2023-01-16T13:30:17;12.80;;;8.77;;
62110;SDS011;48102;47.526;19.072;2023-01-16T13:33:21;13.73;;;9.30;;
62110;SDS011;48102;47.526;19.072;2023-01-16T13:43:18;14.80;;;8.85;;
62110;SDS011;48102;47.526;19.072;2023-01-16T13:46:45;13.23;;;8.82;;
62110;SDS011;48102;47.526;19.072;2023-01-16T13:49:51;14.52;;;10.07;;
62110;SDS011;48102;47.526;19.072;2023-01-16T13:53:01;13.00;;;9.10;;
62110;SDS011;48102;47.526;19.072;2023-01-16T13:56:08;14.20;;;10.25;;
62110;SDS011;48102;47.526;19.072;2023-01-16T13:59:42;12.30;;;8.68;;
62110;SDS011;48102;47.526;19.072;2023-01-16T14:06:21;10.10;;;7.80;;
62110;SDS011;48102;47.526;19.072;2023-01-16T14:09:28;15.90;;;9.00;;
62110;SDS011;48102;47.526;19.072;2023-01-16T14:12:32;13.35;;;9.55;;
62110;SDS011;48102;47.526;19.072;2023-01-16T14:15:59;14.60;;;8.23;;
62110;SDS011;48102;47.526;19.072;2023-01-16T14:19:41;14.13;;;8.18;;
62110;SDS011;48102;47.526;19.072;2023-01-16T14:22:53;12.35;;;8.85;;
62110;SDS011;48102;47.526;19.072;2023-01-16T14:26:59;14.95;;;9.43;;
62110;SDS011;48102;47.526;19.072;2023-01-16T14:29:49;15.02;;;8.48;;
62110;SDS011;48102;47.526;19.072;2023-01-16T14:32:55;10.65;;;6.80;;
62110;SDS011;48102;47.526;19.072;2023-01-16T14:36:00;10.10;;;7.78;;
62110;SDS011;48102;47.526;19.072;2023-01-16T14:39:20;12.37;;;8.55;;
62110;SDS011;48102;47.526;19.072;2023-01-16T14:46:12;11.73;;;8.05;;
62110;SDS011;48102;47.526;19.072;2023-01-16T14:56:32;10.95;;;8.27;;
62110;SDS011;48102;47.526;19.072;2023-01-16T14:59:39;9.23;;;6.72;;
62110;SDS011;48102;47.526;19.072;2023-01-16T15:03:00;10.00;;;6.97;;
62110;SDS011;48102;47.526;19.072;2023-01-16T15:06:07;10.25;;;7.53;;
62110;SDS011;48102;47.526;19.072;2023-01-16T15:09:13;14.18;;;6.80;;
62110;SDS011;48102;47.526;19.072;2023-01-16T15:12:23;8.65;;;6.15;;
62110;SDS011;48102;47.526;19.072;2023-01-16T15:15:40;10.38;;;8.52;;
62110;SDS011;48102;47.526;19.072;2023-01-16T15:18:46;11.57;;;7.47;;
62110;SDS011;48102;47.526;19.072;2023-01-16T15:22:15;14.68;;;7.37;;
62110;SDS011;48102;47.526;19.072;2023-01-16T15:32:04;14.90;;;7.82;;
62110;SDS011;48102;47.526;19.072;2023-01-16T15:35:21;15.82;;;6.97;;
62110;SDS011;48102;47.526;19.072;2023-01-16T15:38:25;12.00;;;7.65;;
62110;SDS011;48102;47.526;19.072;2023-01-16T15:41:29;9.68;;;6.90;;
62110;SDS011;48102;47.526;19.072;2023-01-16T15:44:52;13.50;;;6.87;;
62110;SDS011;48102;47.526;19.072;2023-01-16T15:51:52;10.27;;;7.35;;
62110;SDS011;48102;47.526;19.072;2023-01-16T15:54:56;13.23;;;8.03;;
62110;SDS011;48102;47.526;19.072;2023-01-16T15:58:00;8.95;;;6.78;;
62110;SDS011;48102;47.526;19.072;2023-01-16T16:01:06;13.65;;;8.18;;
62110;SDS011;48102;47.526;19.072;2023-01-16T16:04:09;10.40;;;7.10;;
62110;SDS011;48102;47.526;19.072;2023-01-16T16:07:12;11.50;;;6.32;;
62110;SDS011;48102;47.526;19.072;2023-01-16T16:10:16;10.00;;;7.18;;
62110;SDS011;48102;47.526;19.072;2023-01-16T16:16:42;9.68;;;5.68;;
62110;SDS011;48102;47.526;19.072;2023-01-16T16:23:41;10.95;;;7.12;;
62110;SDS011;48102;47.526;19.072;2023-01-16T16:26:44;14.30;;;8.15;;
62110;SDS011;48102;47.526;19.072;2023-01-16T16:29:49;10.27;;;7.07;;
